createdAt,value
2022-12-25T00:00:25.183Z,3.55
2022-12-25T00:02:27.073Z,3.72
2022-12-25T00:04:28.928Z,3.67
2022-12-25T00:06:30.681Z,2.95
2022-12-25T00:08:32.799Z,3.40
2022-12-25T00:10:36.458Z,3.63
2022-12-25T00:12:41.639Z,2.88
2022-12-25T00:14:43.283Z,3.28
2022-12-25T00:16:45.062Z,3.88
2022-12-25T00:18:47.977Z,3.28
2022-12-25T00:21:00.491Z,3.00
2022-12-25T00:23:02.106Z,3.03
2022-12-25T00:25:04.045Z,3.45
2022-12-25T00:27:05.730Z,3.03
2022-12-25T00:29:07.412Z,3.10
2022-12-25T00:31:12.361Z,3.15
2022-12-25T00:33:14.321Z,2.85
2022-12-25T00:35:16.116Z,3.30
2022-12-25T00:37:17.908Z,2.90
2022-12-25T00:39:19.663Z,3.60
2022-12-25T00:41:41.969Z,2.90
2022-12-25T00:43:43.843Z,3.08
2022-12-25T00:45:58.070Z,3.13
2022-12-25T00:47:59.908Z,2.80
2022-12-25T00:50:01.694Z,3.20
2022-12-25T00:52:04.826Z,2.88
2022-12-25T00:54:06.582Z,2.60
2022-12-25T00:56:08.326Z,3.33
2022-12-25T00:58:09.913Z,2.85
2022-12-25T01:00:12.803Z,3.08
2022-12-25T01:02:23.365Z,2.95
2022-12-25T01:04:25.084Z,2.78
2022-12-25T01:06:27.128Z,2.92
2022-12-25T01:08:35.014Z,2.70
2022-12-25T01:10:36.779Z,2.60
2022-12-25T01:12:41.231Z,3.05
2022-12-25T01:14:42.871Z,3.00
2022-12-25T01:16:44.554Z,2.58
2022-12-25T01:18:46.635Z,2.85
2022-12-25T01:20:48.481Z,3.22
2022-12-25T01:22:50.077Z,2.50
2022-12-25T01:24:51.771Z,3.25
2022-12-25T01:26:54.225Z,2.70
2022-12-25T01:28:55.875Z,2.50
2022-12-25T01:30:57.546Z,2.53
2022-12-25T01:32:59.249Z,2.80
2022-12-25T01:35:00.998Z,2.50
2022-12-25T01:37:02.917Z,2.70
2022-12-25T01:39:05.252Z,2.58
2022-12-25T01:41:07.001Z,2.50
2022-12-25T01:43:27.610Z,2.40
2022-12-25T01:45:43.635Z,2.72
2022-12-25T01:47:45.434Z,2.78
2022-12-25T01:49:50.508Z,3.10
2022-12-25T01:51:56.172Z,2.25
2022-12-25T01:54:00.873Z,2.50
2022-12-25T01:56:07.288Z,2.20
2022-12-25T01:58:09.400Z,2.42
2022-12-25T02:00:12.132Z,2.30
2022-12-25T02:02:14.746Z,2.35
2022-12-25T02:04:40.296Z,2.30
2022-12-25T02:06:42.331Z,2.10
2022-12-25T02:08:43.987Z,2.28
2022-12-25T02:10:45.917Z,2.05
2022-12-25T02:12:48.800Z,2.53
2022-12-25T02:14:52.121Z,2.10
2022-12-25T02:17:05.940Z,2.47
2022-12-25T02:19:29.207Z,2.45
2022-12-25T02:21:49.165Z,2.35
2022-12-25T02:24:09.226Z,2.20
2022-12-25T02:26:32.711Z,2.42
2022-12-25T02:28:48.855Z,2.10
2022-12-25T02:30:56.340Z,2.72
2022-12-25T02:33:19.915Z,2.40
2022-12-25T02:35:28.305Z,2.17
2022-12-25T02:37:42.261Z,2.80
2022-12-25T02:40:25.699Z,2.42
2022-12-25T02:42:55.413Z,2.20
2022-12-25T02:45:15.497Z,2.60
2022-12-25T02:47:36.893Z,2.60
2022-12-25T02:49:58.805Z,2.33
2022-12-25T02:52:38.149Z,2.45
2022-12-25T02:55:03.966Z,2.25
2022-12-25T02:57:27.968Z,2.40
2022-12-25T02:59:51.333Z,2.65
2022-12-25T03:02:12.733Z,2.55
2022-12-25T03:04:37.103Z,2.22
2022-12-25T03:06:45.758Z,2.50
2022-12-25T03:08:52.413Z,2.35
2022-12-25T03:11:24.866Z,2.45
2022-12-25T03:13:34.352Z,2.60
2022-12-25T03:15:54.756Z,2.10
2022-12-25T03:18:01.343Z,2.22
2022-12-25T03:20:22.825Z,2.17
2022-12-25T03:22:47.768Z,2.20
2022-12-25T03:25:08.736Z,2.28
2022-12-25T03:27:10.370Z,2.30
2022-12-25T03:29:32.178Z,2.33
2022-12-25T03:31:50.142Z,2.13
2022-12-25T03:34:30.475Z,2.10
2022-12-25T03:37:06.624Z,2.28
2022-12-25T03:39:46.115Z,2.30
2022-12-25T03:42:11.663Z,2.13
2022-12-25T03:44:48.905Z,2.30
2022-12-25T03:47:28.261Z,2.10
2022-12-25T03:49:59.908Z,2.08
2022-12-25T03:52:22.885Z,2.22
2022-12-25T03:54:46.741Z,2.05
2022-12-25T03:57:12.661Z,2.05
2022-12-25T03:59:36.844Z,2.30
2022-12-25T04:01:57.396Z,2.13
2022-12-25T04:04:17.704Z,1.98
2022-12-25T04:06:38.129Z,2.03
2022-12-25T04:08:58.665Z,1.90
2022-12-25T04:11:19.146Z,2.00
2022-12-25T04:13:39.463Z,1.88
2022-12-25T04:16:01.830Z,1.80
2022-12-25T04:18:22.239Z,1.70
2022-12-25T04:20:42.677Z,1.70
2022-12-25T04:23:03.093Z,2.05
2022-12-25T04:25:23.633Z,2.20
2022-12-25T04:27:44.242Z,1.90
2022-12-25T04:30:04.733Z,1.90
2022-12-25T04:32:25.146Z,1.90
2022-12-25T04:34:45.405Z,1.70
2022-12-25T04:36:47.059Z,1.83
2022-12-25T04:38:48.679Z,1.70
2022-12-25T04:40:50.270Z,1.98
2022-12-25T04:42:52.364Z,2.13
2022-12-25T04:44:53.991Z,1.88
2022-12-25T04:46:55.868Z,1.85
2022-12-25T04:48:57.615Z,1.85
2022-12-25T04:51:09.112Z,1.80
2022-12-25T04:53:10.768Z,1.70
2022-12-25T04:55:12.550Z,1.60
2022-12-25T04:57:14.209Z,1.75
2022-12-25T04:59:15.873Z,1.90
2022-12-25T05:01:17.751Z,2.08
2022-12-25T05:03:19.490Z,1.70
2022-12-25T05:05:21.277Z,1.92
2022-12-25T05:07:23.036Z,1.60
2022-12-25T05:09:26.208Z,1.35
2022-12-25T05:11:27.877Z,1.58
2022-12-25T05:13:29.479Z,1.52
2022-12-25T05:15:31.149Z,1.65
2022-12-25T05:17:32.844Z,1.70
2022-12-25T05:19:34.763Z,1.73
2022-12-25T05:21:36.651Z,1.83
2022-12-25T05:23:38.557Z,1.50
2022-12-25T05:25:40.769Z,1.80
2022-12-25T05:27:42.388Z,1.60
2022-12-25T05:29:44.125Z,1.42
2022-12-25T05:31:45.856Z,1.48
2022-12-25T05:33:51.535Z,1.52
2022-12-25T05:35:53.179Z,1.75
2022-12-25T05:37:54.826Z,1.60
2022-12-25T05:39:56.500Z,1.52
2022-12-25T05:41:58.180Z,1.52
2022-12-25T05:43:59.856Z,1.30
2022-12-25T05:46:10.247Z,1.52
2022-12-25T05:48:12.057Z,1.40
2022-12-25T05:50:13.784Z,1.88
2022-12-25T05:52:15.517Z,1.58
2022-12-25T05:54:17.165Z,1.60
2022-12-25T05:56:18.889Z,1.63
2022-12-25T05:58:20.520Z,1.55
2022-12-25T06:00:22.152Z,1.77
2022-12-25T06:02:24.978Z,1.55
2022-12-25T06:04:27.110Z,1.63
2022-12-25T06:06:28.763Z,1.30
2022-12-25T06:08:30.406Z,1.30
2022-12-25T06:10:32.110Z,1.65
2022-12-25T06:12:33.761Z,1.52
2022-12-25T06:14:38.284Z,1.13
2022-12-25T06:16:40.079Z,1.40
2022-12-25T06:18:48.985Z,1.40
2022-12-25T06:20:50.727Z,1.30
2022-12-25T06:22:53.472Z,1.38
2022-12-25T06:24:55.095Z,1.50
2022-12-25T06:26:56.806Z,1.52
2022-12-25T06:28:58.538Z,1.58
2022-12-25T06:31:06.275Z,1.42
2022-12-25T06:33:07.987Z,1.40
2022-12-25T06:35:09.685Z,1.30
2022-12-25T06:37:11.280Z,1.58
2022-12-25T06:39:12.880Z,1.67
2022-12-25T06:41:17.125Z,1.50
2022-12-25T06:43:18.867Z,1.70
2022-12-25T06:45:20.625Z,2.03
2022-12-25T06:47:22.220Z,1.50
2022-12-25T06:49:24.560Z,1.38
2022-12-25T06:51:29.266Z,1.60
2022-12-25T06:53:38.862Z,1.65
2022-12-25T06:55:42.378Z,1.63
2022-12-25T06:57:44.025Z,1.50
2022-12-25T06:59:48.496Z,1.40
2022-12-25T07:01:57.298Z,1.50
2022-12-25T07:04:03.768Z,1.42
2022-12-25T07:06:05.668Z,1.40
2022-12-25T07:08:07.339Z,1.40
2022-12-25T07:10:09.427Z,1.20
2022-12-25T07:12:18.521Z,1.45
2022-12-25T07:14:24.384Z,1.38
2022-12-25T07:16:26.384Z,1.40
2022-12-25T07:18:29.240Z,0.90
2022-12-25T07:20:30.981Z,1.50
2022-12-25T07:22:32.636Z,1.20
2022-12-25T07:24:34.277Z,1.55
2022-12-25T07:26:35.953Z,1.30
2022-12-25T07:28:38.202Z,1.35
2022-12-25T07:30:39.823Z,1.40
2022-12-25T07:32:44.368Z,1.50
2022-12-25T07:34:50.047Z,1.20
2022-12-25T07:36:52.226Z,1.35
2022-12-25T07:38:53.838Z,1.40
2022-12-25T07:40:56.323Z,1.40
2022-12-25T07:42:58.013Z,1.60
2022-12-25T07:44:59.627Z,1.48
2022-12-25T07:47:01.319Z,1.52
2022-12-25T07:49:03.018Z,1.20
2022-12-25T07:51:07.079Z,1.23
2022-12-25T07:53:08.740Z,1.48
2022-12-25T07:55:10.499Z,1.30
2022-12-25T07:57:12.207Z,1.40
2022-12-25T07:59:14.324Z,1.40
2022-12-25T08:01:25.092Z,1.20
2022-12-25T08:03:27.048Z,1.00
2022-12-25T08:05:29.194Z,1.20
2022-12-25T08:07:30.823Z,1.70
2022-12-25T08:09:32.512Z,0.98
2022-12-25T08:11:34.299Z,1.05
2022-12-25T08:13:36.590Z,1.45
2022-12-25T08:15:38.231Z,1.35
2022-12-25T08:17:40.081Z,1.20
2022-12-25T08:19:41.769Z,1.33
2022-12-25T08:21:43.446Z,1.08
2022-12-25T08:23:48.326Z,1.10
2022-12-25T08:25:50.000Z,0.82
2022-12-25T08:27:51.653Z,1.23
2022-12-25T08:29:53.289Z,0.98
2022-12-25T08:31:55.186Z,1.40
2022-12-25T08:33:59.432Z,0.90
2022-12-25T08:36:07.011Z,0.85
2022-12-25T08:38:08.644Z,1.00
2022-12-25T08:40:10.729Z,1.05
2022-12-25T08:42:12.450Z,1.00
2022-12-25T08:44:14.159Z,1.15
2022-12-25T08:46:15.881Z,1.15
2022-12-25T08:48:17.600Z,1.30
2022-12-25T08:50:19.282Z,1.00
2022-12-25T08:52:20.962Z,1.00
2022-12-25T08:54:22.583Z,1.30
2022-12-25T08:56:24.188Z,0.90
2022-12-25T08:58:26.325Z,1.52
2022-12-25T09:00:27.985Z,1.20
2022-12-25T09:02:29.799Z,1.90
2022-12-25T09:04:31.576Z,1.20
2022-12-25T09:06:33.280Z,1.58
2022-12-25T09:08:35.826Z,1.15
2022-12-25T09:10:37.593Z,1.48
2022-12-25T09:12:39.521Z,1.45
2022-12-25T09:14:41.164Z,1.17
2022-12-25T09:16:42.843Z,1.20
2022-12-25T09:18:44.751Z,0.90
2022-12-25T09:20:46.498Z,1.33
2022-12-25T09:22:48.189Z,1.50
2022-12-25T09:24:50.064Z,0.82
2022-12-25T09:26:51.966Z,1.00
2022-12-25T09:28:53.675Z,1.25
2022-12-25T09:30:55.813Z,0.90
2022-12-25T09:32:57.534Z,0.80
2022-12-25T09:34:59.196Z,1.50
2022-12-25T09:37:01.269Z,1.20
2022-12-25T09:39:03.041Z,1.00
2022-12-25T09:41:26.469Z,1.10
2022-12-25T09:43:32.072Z,1.13
2022-12-25T09:45:38.139Z,1.17
2022-12-25T09:47:44.052Z,1.10
2022-12-25T09:50:03.840Z,1.10
2022-12-25T09:52:11.795Z,1.25
2022-12-25T09:54:22.395Z,1.00
2022-12-25T09:56:27.994Z,0.85
2022-12-25T09:58:32.217Z,1.42
2022-12-25T10:00:49.605Z,0.90
2022-12-25T10:03:09.613Z,1.10
2022-12-25T10:05:29.266Z,1.10
2022-12-25T10:07:55.978Z,1.05
2022-12-25T10:10:15.793Z,0.90
2022-12-25T10:12:35.699Z,1.02
2022-12-25T10:15:01.483Z,1.30
2022-12-25T10:17:44.497Z,1.23
2022-12-25T10:20:05.629Z,1.15
2022-12-25T10:22:20.772Z,1.10
2022-12-25T10:24:40.729Z,1.20
2022-12-25T10:26:42.776Z,1.10
2022-12-25T10:28:55.629Z,1.20
2022-12-25T10:31:03.696Z,1.20
2022-12-25T10:33:05.467Z,1.08
2022-12-25T10:35:11.936Z,1.30
2022-12-25T10:37:13.766Z,1.10
2022-12-25T10:39:21.463Z,1.80
2022-12-25T10:41:54.158Z,1.65
2022-12-25T10:43:57.272Z,1.83
2022-12-25T10:45:59.138Z,2.50
2022-12-25T10:48:08.072Z,2.60
2022-12-25T10:50:11.687Z,2.78
2022-12-25T10:52:28.694Z,3.10
2022-12-25T10:54:33.429Z,2.97
2022-12-25T10:56:35.109Z,2.65
2022-12-25T10:58:36.759Z,2.50
2022-12-25T11:00:38.420Z,2.50
2022-12-25T11:02:41.142Z,2.33
2022-12-25T11:04:43.416Z,2.45
2022-12-25T11:06:45.663Z,2.42
2022-12-25T11:08:53.585Z,2.65
2022-12-25T11:11:07.614Z,2.53
2022-12-25T11:13:20.910Z,2.50
2022-12-25T11:15:34.557Z,2.25
2022-12-25T11:17:36.206Z,2.10
2022-12-25T11:19:37.915Z,2.20
2022-12-25T11:21:39.649Z,2.33
2022-12-25T11:23:49.416Z,2.10
2022-12-25T11:26:06.220Z,1.73
2022-12-25T11:28:11.986Z,2.00
2022-12-25T11:30:16.192Z,2.00
2022-12-25T11:32:27.437Z,2.00
2022-12-25T11:36:52.561Z,1.80
2022-12-25T11:38:54.328Z,1.88
2022-12-25T11:41:00.005Z,1.52
2022-12-25T11:43:50.672Z,2.10
2022-12-25T11:46:07.636Z,1.83
2022-12-25T11:48:18.256Z,2.00
2022-12-25T11:50:35.605Z,1.33
2022-12-25T11:52:40.306Z,1.35
2022-12-25T11:55:10.350Z,1.90
2022-12-25T11:57:12.763Z,1.40
2022-12-25T11:59:18.156Z,1.60
2022-12-25T12:01:34.540Z,1.70
2022-12-25T12:03:38.509Z,1.92
2022-12-25T12:06:04.429Z,1.65
2022-12-25T12:08:06.869Z,1.92
2022-12-25T12:10:19.010Z,1.60
2022-12-25T12:12:36.741Z,1.90
2022-12-25T12:15:19.457Z,1.88
2022-12-25T12:17:21.315Z,1.98
2022-12-25T12:19:31.357Z,1.77
2022-12-25T12:21:32.997Z,1.90
2022-12-25T12:24:06.206Z,2.55
2022-12-25T12:26:16.821Z,1.98
2022-12-25T12:28:45.728Z,2.20
2022-12-25T12:30:58.778Z,1.73
2022-12-25T12:33:03.572Z,2.08
2022-12-25T12:35:22.466Z,1.95
2022-12-25T12:37:36.951Z,2.05
2022-12-25T12:39:40.371Z,2.90
2022-12-25T12:41:49.946Z,2.50
2022-12-25T12:44:00.621Z,2.38
2022-12-25T12:46:33.876Z,2.30
2022-12-25T12:48:41.920Z,3.10
2022-12-25T12:50:43.671Z,2.25
2022-12-25T12:52:45.347Z,2.45
2022-12-25T12:54:57.111Z,2.83
2022-12-25T12:57:04.594Z,2.33
2022-12-25T12:59:09.803Z,2.35
2022-12-25T13:01:27.420Z,2.30
2022-12-25T13:03:34.458Z,1.92
2022-12-25T13:06:02.111Z,1.98
2022-12-25T13:08:47.013Z,2.22
2022-12-25T13:10:51.432Z,2.25
2022-12-25T13:13:00.607Z,1.80
2022-12-25T13:15:02.377Z,2.00
2022-12-25T13:17:07.736Z,2.00
2022-12-25T13:19:16.457Z,1.75
2022-12-25T13:21:22.952Z,2.15
2022-12-25T13:23:36.730Z,1.98
2022-12-25T13:25:39.252Z,2.45
2022-12-25T13:27:40.856Z,2.30
2022-12-25T13:29:42.692Z,2.10
2022-12-25T13:31:44.422Z,2.10
2022-12-25T13:33:58.057Z,2.20
2022-12-25T13:35:59.868Z,1.90
2022-12-25T13:38:02.372Z,1.88
2022-12-25T13:40:07.007Z,1.75
2022-12-25T13:42:11.908Z,2.03
2022-12-25T13:44:19.525Z,2.15
2022-12-25T13:46:26.913Z,2.35
2022-12-25T13:48:28.732Z,1.95
2022-12-25T13:50:32.666Z,1.73
2022-12-25T13:52:37.125Z,1.75
2022-12-25T13:54:39.468Z,1.80
2022-12-25T13:56:56.077Z,2.03
2022-12-25T13:58:58.016Z,2.22
2022-12-25T14:01:02.486Z,2.03
2022-12-25T14:03:07.411Z,2.42
2022-12-25T14:05:37.665Z,2.30
2022-12-25T14:07:41.292Z,2.22
2022-12-25T14:09:43.109Z,1.98
2022-12-25T14:11:48.778Z,2.30
2022-12-25T14:13:54.307Z,2.00
2022-12-25T14:15:57.715Z,2.30
2022-12-25T14:17:59.881Z,2.88
2022-12-25T14:20:07.933Z,3.38
2022-12-25T14:22:22.553Z,7.93
2022-12-25T14:24:26.967Z,10.63
2022-12-25T14:26:33.601Z,9.85
2022-12-25T14:28:37.023Z,12.75
2022-12-25T14:30:43.066Z,13.00
2022-12-25T14:32:50.653Z,13.20
2022-12-25T14:35:03.602Z,13.50
2022-12-25T14:37:07.099Z,12.63
2022-12-25T14:39:34.796Z,12.00
2022-12-25T14:41:42.048Z,12.48
2022-12-25T14:43:55.041Z,12.20
2022-12-25T14:46:02.727Z,12.88
2022-12-25T14:48:25.789Z,11.68
2022-12-25T14:50:40.936Z,21.27
2022-12-25T14:52:44.488Z,35.85
2022-12-25T14:55:07.099Z,31.65
2022-12-25T14:57:18.145Z,28.58
2022-12-25T15:01:39.773Z,25.15
2022-12-25T15:03:41.600Z,25.40
2022-12-25T15:05:43.439Z,22.42
2022-12-25T15:07:45.207Z,21.33
2022-12-25T15:09:46.836Z,19.52
2022-12-25T15:11:55.317Z,19.45
2022-12-25T15:13:57.525Z,17.98
2022-12-25T15:16:08.783Z,17.98
2022-12-25T15:18:11.542Z,16.98
2022-12-25T15:20:13.794Z,15.90
2022-12-25T15:22:15.477Z,15.23
2022-12-25T15:24:18.225Z,13.25
2022-12-25T15:26:20.069Z,12.10
2022-12-25T15:28:21.811Z,11.55
2022-12-25T15:30:23.798Z,12.10
2022-12-25T15:32:25.454Z,11.00
2022-12-25T15:34:28.080Z,10.55
2022-12-25T15:36:30.260Z,10.18
2022-12-25T15:38:36.452Z,10.18
2022-12-25T15:40:38.356Z,11.20
2022-12-25T15:42:41.029Z,11.68
2022-12-25T15:44:43.777Z,10.95
2022-12-25T15:46:46.063Z,13.43
2022-12-25T15:48:47.767Z,14.25
2022-12-25T15:50:49.419Z,15.40
2022-12-25T15:52:51.285Z,14.32
2022-12-25T15:54:54.097Z,9.80
2022-12-25T15:56:58.080Z,9.25
2022-12-25T15:58:59.714Z,5.55
2022-12-25T16:01:01.669Z,8.55
2022-12-25T16:03:03.397Z,9.43
2022-12-25T16:05:10.285Z,10.23
2022-12-25T16:07:15.586Z,12.57
2022-12-25T16:09:19.984Z,8.90
2022-12-25T16:11:21.677Z,10.65
2022-12-25T16:13:23.461Z,10.90
2022-12-25T16:15:25.084Z,9.88
2022-12-25T16:17:26.749Z,9.68
2022-12-25T16:19:28.358Z,9.82
2022-12-25T16:21:40.028Z,10.73
2022-12-25T16:23:41.680Z,11.30
2022-12-25T16:25:43.308Z,9.55
2022-12-25T16:27:45.683Z,8.90
2022-12-25T16:29:47.488Z,9.30
2022-12-25T16:31:49.138Z,8.88
2022-12-25T16:33:50.891Z,8.50
2022-12-25T16:35:52.554Z,8.93
2022-12-25T16:37:54.217Z,8.55
2022-12-25T16:39:55.921Z,8.82
2022-12-25T16:41:57.677Z,6.97
2022-12-25T16:43:59.315Z,7.68
2022-12-25T16:46:01.030Z,8.10
2022-12-25T16:48:02.758Z,7.72
2022-12-25T16:50:06.184Z,6.47
2022-12-25T16:52:07.827Z,7.22
2022-12-25T16:54:09.496Z,7.20
2022-12-25T16:56:14.678Z,7.05
2022-12-25T16:58:16.431Z,6.70
2022-12-25T17:00:18.700Z,6.43
2022-12-25T17:02:21.635Z,6.70
2022-12-25T17:04:23.664Z,6.72
2022-12-25T17:06:28.188Z,6.30
2022-12-25T17:08:30.106Z,6.28
2022-12-25T17:10:32.441Z,6.53
2022-12-25T17:12:34.239Z,6.10
2022-12-25T17:14:36.709Z,5.80
2022-12-25T17:16:38.610Z,6.45
2022-12-25T17:18:40.274Z,5.25
2022-12-25T17:20:49.875Z,5.68
2022-12-25T17:22:51.603Z,5.07
2022-12-25T17:24:53.236Z,5.72
2022-12-25T17:26:55.159Z,5.55
2022-12-25T17:28:57.247Z,5.95
2022-12-25T17:31:06.533Z,4.88
2022-12-25T17:33:08.209Z,4.53
2022-12-25T17:35:09.907Z,4.32
2022-12-25T17:37:11.540Z,5.45
2022-12-25T17:39:13.270Z,5.65
2022-12-25T17:41:16.748Z,4.78
2022-12-25T17:43:21.020Z,5.03
2022-12-25T17:45:22.932Z,4.38
2022-12-25T17:47:24.678Z,4.38
2022-12-25T17:49:26.511Z,4.57
2022-12-25T17:51:30.311Z,4.18
2022-12-25T17:53:34.298Z,3.63
2022-12-25T17:55:38.817Z,3.92
2022-12-25T17:57:41.414Z,3.85
2022-12-25T17:59:43.221Z,4.22
2022-12-25T18:01:45.780Z,3.85
2022-12-25T18:03:48.152Z,4.15
2022-12-25T18:05:50.060Z,4.72
2022-12-25T18:07:51.740Z,4.75
2022-12-25T18:09:53.397Z,4.20
2022-12-25T18:11:55.301Z,4.70
2022-12-25T18:13:58.216Z,4.15
2022-12-25T18:16:04.557Z,4.18
2022-12-25T18:18:07.034Z,3.60
2022-12-25T18:20:09.074Z,3.45
2022-12-25T18:22:10.705Z,4.20
2022-12-25T18:24:12.410Z,4.15
2022-12-25T18:26:16.323Z,4.10
2022-12-25T18:28:17.951Z,3.88
2022-12-25T18:30:20.284Z,4.00
2022-12-25T18:32:27.858Z,3.40
2022-12-25T18:34:29.863Z,3.05
2022-12-25T18:36:32.029Z,3.63
2022-12-25T18:38:33.708Z,3.67
2022-12-25T18:40:46.642Z,3.33
2022-12-25T18:42:52.275Z,3.97
2022-12-25T18:44:55.453Z,3.30
2022-12-25T18:46:57.111Z,3.55
2022-12-25T18:48:58.797Z,3.60
2022-12-25T18:51:03.121Z,3.20
2022-12-25T18:53:05.561Z,2.60
2022-12-25T18:55:08.018Z,3.42
2022-12-25T18:57:09.624Z,2.78
2022-12-25T18:59:11.936Z,2.90
2022-12-25T19:01:20.043Z,3.25
2022-12-25T19:03:21.839Z,3.25
2022-12-25T19:05:23.627Z,2.95
2022-12-25T19:07:25.242Z,3.13
2022-12-25T19:09:26.923Z,2.97
2022-12-25T19:11:28.571Z,2.58
2022-12-25T19:13:33.279Z,2.42
2022-12-25T19:15:35.680Z,2.67
2022-12-25T19:17:37.461Z,2.53
2022-12-25T19:19:39.270Z,2.67
2022-12-25T19:21:41.471Z,2.67
2022-12-25T19:23:43.134Z,2.58
2022-12-25T19:25:44.880Z,2.78
2022-12-25T19:27:46.559Z,2.47
2022-12-25T19:29:48.328Z,3.00
2022-12-25T19:31:49.980Z,2.00
2022-12-25T19:33:51.708Z,2.63
2022-12-25T19:35:53.441Z,2.72
2022-12-25T19:37:55.137Z,2.25
2022-12-25T19:39:57.292Z,2.17
2022-12-25T19:41:58.957Z,1.98
2022-12-25T19:44:01.175Z,2.03
2022-12-25T19:46:03.795Z,2.67
2022-12-25T19:48:05.759Z,2.10
2022-12-25T19:50:07.770Z,2.50
2022-12-25T19:52:13.625Z,2.20
2022-12-25T19:54:18.800Z,2.30
2022-12-25T19:56:20.436Z,2.35
2022-12-25T19:58:23.305Z,2.40
2022-12-25T20:00:24.941Z,2.22
2022-12-25T20:02:27.060Z,2.72
2022-12-25T20:04:28.886Z,2.55
2022-12-25T20:06:32.809Z,2.90
2022-12-25T20:08:34.529Z,2.50
2022-12-25T20:10:41.825Z,2.45
2022-12-25T20:12:44.389Z,2.45
2022-12-25T20:14:46.565Z,2.67
2022-12-25T20:16:48.317Z,2.55
2022-12-25T20:18:50.949Z,2.47
2022-12-25T20:21:01.022Z,2.50
2022-12-25T20:23:02.731Z,2.40
2022-12-25T20:25:08.957Z,2.67
2022-12-25T20:27:10.701Z,2.60
2022-12-25T20:29:12.399Z,2.35
2022-12-25T20:31:29.877Z,2.45
2022-12-25T20:33:31.577Z,2.33
2022-12-25T20:35:33.345Z,2.22
2022-12-25T20:37:35.057Z,2.45
2022-12-25T20:39:36.712Z,2.60
2022-12-25T20:41:39.750Z,2.22
2022-12-25T20:43:45.482Z,2.03
2022-12-25T20:45:51.225Z,2.30
2022-12-25T20:47:52.848Z,4.15
2022-12-25T20:49:54.616Z,6.80
2022-12-25T20:52:01.355Z,5.93
2022-12-25T20:54:09.142Z,6.68
2022-12-25T20:56:13.436Z,5.90
2022-12-25T20:58:16.901Z,5.80
2022-12-25T21:00:18.633Z,5.53
2022-12-25T21:02:34.397Z,5.78
2022-12-25T21:04:38.044Z,5.18
2022-12-25T21:06:39.953Z,5.35
2022-12-25T21:08:41.749Z,5.32
2022-12-25T21:10:46.132Z,5.65
2022-12-25T21:12:47.744Z,5.30
2022-12-25T21:14:49.445Z,5.20
2022-12-25T21:16:51.161Z,4.45
2022-12-25T21:18:53.828Z,5.38
2022-12-25T21:20:58.151Z,4.80
2022-12-25T21:22:59.809Z,4.88
2022-12-25T21:25:01.793Z,4.78
2022-12-25T21:27:03.574Z,4.60
2022-12-25T21:29:05.223Z,4.13
2022-12-25T21:31:07.781Z,4.35
2022-12-25T21:33:30.926Z,4.18
2022-12-25T21:35:36.645Z,4.40
2022-12-25T21:37:38.335Z,4.50
2022-12-25T21:39:40.089Z,3.97
2022-12-25T21:41:42.224Z,3.78
2022-12-25T21:43:43.929Z,4.65
2022-12-25T21:45:45.636Z,3.38
2022-12-25T21:48:02.096Z,3.20
2022-12-25T21:50:23.388Z,3.78
2022-12-25T21:52:25.036Z,3.63
2022-12-25T21:54:26.665Z,3.22
2022-12-25T21:56:30.336Z,3.47
2022-12-25T21:58:31.996Z,2.95
2022-12-25T22:00:33.580Z,3.17
2022-12-25T22:02:35.335Z,3.45
2022-12-25T22:04:37.800Z,3.67
2022-12-25T22:06:58.065Z,3.45
2022-12-25T22:08:59.784Z,3.37
2022-12-25T22:11:04.815Z,2.90
2022-12-25T22:13:24.950Z,3.25
2022-12-25T22:15:45.110Z,3.05
2022-12-25T22:18:05.394Z,3.10
2022-12-25T22:20:09.427Z,3.10
2022-12-25T22:22:11.831Z,3.08
2022-12-25T22:24:13.476Z,2.97
2022-12-25T22:26:20.623Z,2.72
2022-12-25T22:28:22.876Z,2.97
2022-12-25T22:30:27.415Z,2.83
2022-12-25T22:32:29.205Z,2.72
2022-12-25T22:34:31.031Z,2.78
2022-12-25T22:36:32.659Z,2.80
2022-12-25T22:38:34.831Z,2.92
2022-12-25T22:40:37.711Z,2.80
2022-12-25T22:42:39.356Z,2.50
2022-12-25T22:44:41.073Z,3.05
2022-12-25T22:46:42.808Z,2.90
2022-12-25T22:48:44.473Z,2.92
2022-12-25T22:50:46.229Z,3.20
2022-12-25T22:52:47.911Z,2.90
2022-12-25T22:54:49.505Z,2.85
2022-12-25T22:56:53.079Z,2.60
2022-12-25T22:58:56.326Z,2.40
2022-12-25T23:00:57.978Z,3.03
2022-12-25T23:02:59.816Z,2.55
2022-12-25T23:05:02.360Z,2.40
2022-12-25T23:07:05.098Z,2.83
2022-12-25T23:09:08.801Z,2.47
2022-12-25T23:11:10.408Z,2.75
2022-12-25T23:13:30.957Z,2.67
2022-12-25T23:15:32.743Z,2.92
2022-12-25T23:17:53.295Z,2.30
2022-12-25T23:20:14.311Z,2.65
2022-12-25T23:22:34.649Z,2.63
2022-12-25T23:24:55.329Z,2.90
2022-12-25T23:26:57.949Z,2.65
2022-12-25T23:29:18.414Z,2.58
2022-12-25T23:31:25.380Z,2.42
2022-12-25T23:33:27.033Z,2.53
2022-12-25T23:35:29.865Z,2.10
2022-12-25T23:37:31.560Z,2.13
2022-12-25T23:39:33.840Z,2.92
2022-12-25T23:41:35.545Z,2.10
2022-12-25T23:43:37.201Z,2.00
2022-12-25T23:45:38.859Z,2.42
2022-12-25T23:47:40.498Z,2.20
2022-12-25T23:49:42.199Z,2.38
2022-12-25T23:51:45.750Z,2.25
2022-12-25T23:53:47.564Z,2.45
2022-12-25T23:55:55.697Z,2.35
2022-12-25T23:57:57.636Z,2.28
2022-12-25T23:59:59.228Z,2.28
